createdAt,value
2023-03-14T00:03:37.235Z,20.4
2023-03-14T00:08:37.936Z,20.4
2023-03-14T00:13:38.560Z,20.4
2023-03-14T00:18:39.156Z,20.4
2023-03-14T00:23:39.963Z,20.3
2023-03-14T00:28:40.545Z,20.2
2023-03-14T00:33:41.118Z,20.3
2023-03-14T00:38:41.996Z,20.3
2023-03-14T00:43:42.389Z,20.3
2023-03-14T00:48:41.872Z,20.3
2023-03-14T00:53:45.444Z,20.3
2023-03-14T00:58:45.476Z,20.3
2023-03-14T01:03:45.898Z,20.3
2023-03-14T01:08:46.535Z,20.3
2023-03-14T01:13:47.042Z,20.2
2023-03-14T01:18:50.425Z,20.1
2023-03-14T01:23:50.504Z,20.2
2023-03-14T01:28:51.014Z,20.2
2023-03-14T01:33:51.361Z,20.2
2023-03-14T01:38:51.742Z,20.2
2023-03-14T01:43:52.196Z,20.2
2023-03-14T01:48:52.710Z,20.2
2023-03-14T01:53:55.761Z,20.2
2023-03-14T01:58:58.587Z,20.2
2023-03-14T02:04:01.502Z,20.1
2023-03-14T02:09:01.811Z,20.1
2023-03-14T02:14:02.355Z,20.1
2023-03-14T02:19:02.945Z,20
2023-03-14T02:24:03.617Z,20.1
2023-03-14T02:29:04.155Z,20.1
2023-03-14T02:34:04.859Z,20.1
2023-03-14T02:39:05.462Z,20
2023-03-14T02:44:08.776Z,20.1
2023-03-14T02:49:12.659Z,19.9
2023-03-14T02:54:12.758Z,20
2023-03-14T02:59:13.503Z,20.1
2023-03-14T03:04:13.916Z,20
2023-03-14T03:09:16.556Z,20
2023-03-14T03:14:16.848Z,20
2023-03-14T03:19:21.763Z,20
2023-03-14T03:24:21.540Z,20
2023-03-14T03:29:24.943Z,20
2023-03-14T03:34:24.842Z,20
2023-03-14T03:39:25.426Z,20
2023-03-14T03:44:25.880Z,20
2023-03-14T03:49:26.673Z,19.9
2023-03-14T03:54:27.316Z,20
2023-03-14T03:59:27.939Z,19.9
2023-03-14T04:04:28.449Z,20
2023-03-14T04:09:29.098Z,19.9
2023-03-14T04:14:29.696Z,19.8
2023-03-14T04:19:30.116Z,19.9
2023-03-14T04:24:30.799Z,19.9
2023-03-14T04:29:31.178Z,20
2023-03-14T04:34:31.927Z,19.8
2023-03-14T04:39:32.724Z,19.9
2023-03-14T04:44:33.281Z,20
2023-03-14T04:49:33.853Z,20
2023-03-14T04:54:34.489Z,20
2023-03-14T04:59:38.169Z,20
2023-03-14T05:04:38.266Z,20
2023-03-14T05:09:38.853Z,20
2023-03-14T05:14:39.589Z,20
2023-03-14T05:19:40.329Z,20.1
2023-03-14T05:24:40.782Z,20.2
2023-03-14T05:29:41.380Z,20.2
2023-03-14T05:34:41.484Z,20.3
2023-03-14T05:39:42.235Z,20.3
2023-03-14T05:44:42.924Z,20.4
2023-03-14T05:49:43.724Z,20.4
2023-03-14T05:54:44.608Z,20.6
2023-03-14T05:59:45.387Z,20.6
2023-03-14T06:04:46.073Z,20.6
2023-03-14T06:09:46.752Z,20.8
2023-03-14T06:14:47.387Z,20.7
2023-03-14T06:19:48.385Z,20.8
2023-03-14T06:24:50.719Z,20.8
2023-03-14T06:29:50.945Z,20.8
2023-03-14T06:34:51.564Z,20.9
2023-03-14T06:39:52.289Z,21
2023-03-14T06:44:53.043Z,20.9
2023-03-14T06:49:53.659Z,21
2023-03-14T06:54:58.193Z,21.1
2023-03-14T06:59:58.498Z,21
2023-03-14T07:04:59.209Z,21
2023-03-14T07:09:59.860Z,21.1
2023-03-14T07:15:08.665Z,21
2023-03-14T07:20:01.185Z,21
2023-03-14T07:25:01.776Z,21.1
2023-03-14T07:30:02.166Z,21
2023-03-14T07:35:03.176Z,21.1
2023-03-14T07:40:06.513Z,21.1
2023-03-14T07:45:08.449Z,21.1
2023-03-14T07:50:08.558Z,21.1
2023-03-14T07:55:09.170Z,21.1
2023-03-14T08:00:14.765Z,21.1
2023-03-14T08:05:13.410Z,21.2
2023-03-14T08:10:14.095Z,21.1
2023-03-14T08:15:14.678Z,21.1
2023-03-14T08:20:15.187Z,21.1
2023-03-14T08:25:15.792Z,21
2023-03-14T08:30:15.939Z,21
2023-03-14T08:35:16.209Z,21
2023-03-14T08:40:16.674Z,21
2023-03-14T08:45:17.558Z,21
2023-03-14T08:50:18.203Z,21
2023-03-14T08:55:21.568Z,21
2023-03-14T09:00:21.811Z,21
2023-03-14T09:05:22.251Z,21
2023-03-14T09:10:25.257Z,21
2023-03-14T09:15:25.240Z,21
2023-03-14T09:20:25.655Z,20.9
2023-03-14T09:25:28.654Z,20.7
2023-03-14T09:30:28.627Z,20.9
2023-03-14T09:35:29.203Z,20.6
2023-03-14T09:40:29.553Z,20.9
2023-03-14T09:45:32.879Z,20.9
2023-03-14T09:50:33.059Z,20.9
2023-03-14T09:55:40.841Z,21
2023-03-14T10:00:42.774Z,20.9
2023-03-14T10:05:42.863Z,21
2023-03-14T10:10:42.982Z,21
2023-03-14T10:15:46.324Z,21
2023-03-14T10:20:49.013Z,21
2023-03-14T10:25:48.003Z,21.1
2023-03-14T10:30:51.262Z,21.1
2023-03-14T10:35:54.122Z,21.1
2023-03-14T10:40:54.012Z,21.1
2023-03-14T10:45:54.563Z,21.1
2023-03-14T10:50:37.729Z,21
2023-03-14T10:55:38.142Z,20.9
2023-03-14T11:00:38.706Z,21.1
2023-03-14T11:05:42.116Z,21
2023-03-14T11:10:42.048Z,21.1
2023-03-14T11:15:42.746Z,21.4
2023-03-14T11:20:43.334Z,21.4
2023-03-14T11:25:44.122Z,21.3
2023-03-14T11:30:44.131Z,21.4
2023-03-14T11:35:47.518Z,21.5
2023-03-14T11:40:50.598Z,21.4
2023-03-14T11:45:50.404Z,21.5
2023-03-14T11:50:53.911Z,21.5
2023-03-14T11:55:53.905Z,21.6
2023-03-14T12:00:54.602Z,21.4
2023-03-14T12:05:57.579Z,21.6
2023-03-14T12:10:57.572Z,21.6
2023-03-14T12:15:58.171Z,21.6
2023-03-14T12:20:58.938Z,21.6
2023-03-14T12:25:59.527Z,21.6
2023-03-14T12:30:59.918Z,21.7
2023-03-14T12:36:00.637Z,21.6
2023-03-14T12:41:01.171Z,21.8
2023-03-14T12:46:01.552Z,21.7
2023-03-14T12:51:01.936Z,21.7
2023-03-14T12:56:04.184Z,21.7
2023-03-14T13:01:04.415Z,21.7
2023-03-14T13:06:05.134Z,21.8
2023-03-14T13:11:05.482Z,21.8
2023-03-14T13:16:05.859Z,21.9
2023-03-14T13:21:06.363Z,21.9
2023-03-14T13:26:07.051Z,21.9
2023-03-14T13:31:07.849Z,21.9
2023-03-14T13:36:08.507Z,21.8
2023-03-14T13:41:09.124Z,21.9
2023-03-14T13:46:09.586Z,21.9
2023-03-14T13:51:10.217Z,22
2023-03-14T13:56:10.620Z,21.9
2023-03-14T14:01:11.382Z,22
2023-03-14T14:06:12.013Z,22
2023-03-14T14:11:39.110Z,21.9
2023-03-14T14:16:27.683Z,22
2023-03-14T14:21:28.054Z,22
2023-03-14T14:26:29.405Z,22
2023-03-14T14:31:30.248Z,21.9
2023-03-14T14:36:30.595Z,22
2023-03-14T14:41:33.843Z,22
2023-03-14T14:46:33.016Z,22
2023-03-14T14:51:33.629Z,22
2023-03-14T14:56:33.971Z,22
2023-03-14T15:01:37.235Z,22.1
2023-03-14T15:06:36.930Z,22
2023-03-14T15:11:37.350Z,22
2023-03-14T15:16:40.382Z,22.1
2023-03-14T15:21:40.211Z,22
2023-03-14T15:26:40.554Z,22
2023-03-14T15:31:41.303Z,22.1
2023-03-14T15:36:41.824Z,22.1
2023-03-14T15:41:42.253Z,22.1
2023-03-14T15:46:42.825Z,22
2023-03-14T15:51:43.392Z,22.1
2023-03-14T15:56:44.159Z,22.1
2023-03-14T16:01:44.489Z,22.1
2023-03-14T16:06:47.730Z,22.1
2023-03-14T16:11:47.746Z,22.1
2023-03-14T16:16:48.247Z,22
2023-03-14T16:21:49.926Z,22
2023-03-14T16:26:49.164Z,22
2023-03-14T16:31:49.901Z,21.9
2023-03-14T16:36:50.505Z,22.1
2023-03-14T16:41:51.087Z,22
2023-03-14T16:46:51.482Z,22.1
2023-03-14T16:51:52.086Z,22
2023-03-14T16:56:52.594Z,21.9
2023-03-14T17:01:53.306Z,22.1
2023-03-14T17:06:53.756Z,22
2023-03-14T17:11:57.084Z,22.1
2023-03-14T17:16:57.179Z,22.1
2023-03-14T17:22:18.750Z,22.1
2023-03-14T17:27:03.440Z,22.1
2023-03-14T17:32:03.584Z,22
2023-03-14T17:37:03.846Z,22
2023-03-14T17:42:04.454Z,22.1
2023-03-14T17:47:07.901Z,22.1
2023-03-14T17:52:08.134Z,22
2023-03-14T17:57:11.455Z,22
2023-03-14T18:02:11.698Z,22
2023-03-14T18:07:12.010Z,22
2023-03-14T18:12:15.093Z,22
2023-03-14T18:17:15.246Z,22
2023-03-14T18:22:15.821Z,21.9
2023-03-14T18:27:16.463Z,21.9
2023-03-14T18:32:16.944Z,21.9
2023-03-14T18:37:17.844Z,21.8
2023-03-14T18:42:18.096Z,21.9
2023-03-14T18:47:18.772Z,21.9
2023-03-14T18:52:19.168Z,21.8
2023-03-14T18:57:19.633Z,21.8
2023-03-14T19:02:20.007Z,21.8
2023-03-14T19:07:20.564Z,21.7
2023-03-14T19:12:24.066Z,21.7
2023-03-14T19:17:24.687Z,21.7
2023-03-14T19:22:25.129Z,21.6
2023-03-14T19:27:25.834Z,21.7
2023-03-14T19:32:26.170Z,21.6
2023-03-14T19:37:26.413Z,21.5
2023-03-14T19:42:27.813Z,21.4
2023-03-14T19:47:28.102Z,21.5
2023-03-14T19:52:28.564Z,21.4
2023-03-14T19:57:29.118Z,21.4
2023-03-14T20:02:29.777Z,21.3
2023-03-14T20:07:29.984Z,21.4
2023-03-14T20:12:30.370Z,21.3
2023-03-14T20:17:30.803Z,21.3
2023-03-14T20:22:33.910Z,21.4
2023-03-14T20:27:34.030Z,21.3
2023-03-14T20:32:37.396Z,21.3
2023-03-14T20:37:37.456Z,21.3
2023-03-14T20:42:37.800Z,21.3
2023-03-14T20:47:38.335Z,21.2
2023-03-14T20:52:38.913Z,21.2
2023-03-14T20:57:39.346Z,21.2
2023-03-14T21:02:39.726Z,21.1
2023-03-14T21:07:40.347Z,21.1
2023-03-14T21:12:40.730Z,21.2
2023-03-14T21:17:40.724Z,21.1
2023-03-14T21:22:41.215Z,21.1
2023-03-14T21:27:41.680Z,21.1
2023-03-14T21:32:42.057Z,21.1
2023-03-14T21:37:42.629Z,21.1
2023-03-14T21:42:42.921Z,21
2023-03-14T21:47:43.529Z,21.1
2023-03-14T21:52:44.252Z,21
2023-03-14T21:57:47.370Z,21
2023-03-14T22:02:58.276Z,21
2023-03-14T22:07:50.752Z,21
2023-03-14T22:12:50.985Z,21
2023-03-14T22:17:51.572Z,20.9
2023-03-14T22:22:52.189Z,20.9
2023-03-14T22:27:52.842Z,20.9
2023-03-14T22:32:53.760Z,20.9
2023-03-14T22:37:54.296Z,21
2023-03-14T22:42:54.752Z,20.9
2023-03-14T22:47:55.168Z,20.9
2023-03-14T22:52:55.634Z,20.7
2023-03-14T22:57:56.255Z,20.8
2023-03-14T23:02:56.888Z,20.8
2023-03-14T23:07:57.660Z,20.9
2023-03-14T23:12:58.430Z,20.9
2023-03-14T23:18:01.557Z,20.9
2023-03-14T23:23:01.432Z,20.8
2023-03-14T23:28:02.147Z,20.8
2023-03-14T23:33:02.734Z,20.8
2023-03-14T23:38:03.449Z,20.8
2023-03-14T23:43:04.109Z,20.8
2023-03-14T23:48:07.294Z,20.8
2023-03-14T23:53:07.371Z,20.8
2023-03-14T23:58:07.853Z,20.6
